Time;durP1;ratioP1;P1;durP2;ratioP2;P2;SDS_P1;SDS_P2;PMS_P1;PMS_P2;Temp;Humidity;BMP_temperature;BMP_pressure;BME280_temperature;BME280_humidity;BME280_pressure;Samples;Min_cycle;Max_cycle;Signal;HPM_P1;HPM_P2
2022/11/17 00:01:53;;;;;;;1.65;0.40;;;21.10;99.90;;;;;;5059185;28;20258;-79
2022/11/17 00:04:28;;;;;;;2.22;0.50;;;21.20;99.90;;;;;;5053370;28;20208;-79
2022/11/17 00:07:05;;;;;;;5.25;2.05;;;21.10;99.90;;;;;;5051224;28;20205;-81
2022/11/17 00:09:36;;;;;;;2.75;0.75;;;21.30;99.90;;;;;;5048075;28;20877;-81
2022/11/17 00:14:54;;;;;;;1.58;0.50;;;21.00;99.90;;;;;;5042964;28;20213;-81
2022/11/17 00:17:26;;;;;;;1.60;0.70;;;20.60;99.90;;;;;;5046546;28;20728;-81
2022/11/17 00:22:46;;;;;;;2.22;0.50;;;21.00;99.90;;;;;;5048943;28;20228;-79
2022/11/17 00:25:17;;;;;;;2.25;0.55;;;21.10;99.90;;;;;;5054060;28;20280;-78
2022/11/17 00:27:48;;;;;;;2.42;0.60;;;20.90;99.90;;;;;;5039623;28;20752;-74
2022/11/17 00:35:56;;;;;;;3.90;0.73;;;20.70;99.90;;;;;;5043551;28;20201;-81
2022/11/17 00:38:30;;;;;;;3.83;0.60;;;20.70;99.90;;;;;;5045225;28;20257;-76
2022/11/17 00:41:02;;;;;;;1.85;0.50;;;20.50;99.90;;;;;;5053918;28;20228;-78
2022/11/17 00:43:33;;;;;;;1.95;0.90;;;20.60;99.90;;;;;;5054035;28;20280;-78
2022/11/17 00:46:04;;;;;;;1.10;0.55;;;20.60;99.90;;;;;;5042653;28;20236;-76
2022/11/17 00:48:35;;;;;;;2.45;0.85;;;20.20;99.90;;;;;;5049754;28;20667;-78
2022/11/17 00:51:09;;;;;;;1.45;0.60;;;20.40;99.90;;;;;;5050723;28;20214;-77
2022/11/17 00:53:43;;;;;;;3.05;0.68;;;20.10;99.90;;;;;;5040960;28;20626;-78
2022/11/17 00:56:15;;;;;;;2.03;0.73;;;20.30;99.90;;;;;;5048918;28;20280;-77
2022/11/17 00:58:46;;;;;;;2.67;0.80;;;20.40;99.90;;;;;;5044655;28;20284;-77
2022/11/17 01:01:18;;;;;;;1.77;0.70;;;20.40;99.90;;;;;;5051001;28;20281;-77
2022/11/17 01:03:49;;;;;;;2.53;0.60;;;20.70;99.90;;;;;;5060751;28;20656;-78
2022/11/17 01:06:22;;;;;;;1.70;0.50;;;20.60;99.90;;;;;;5058435;28;20628;-76
2022/11/17 01:08:57;;;;;;;2.40;0.60;;;20.50;99.90;;;;;;5043778;28;20300;-78
2022/11/17 01:11:31;;;;;;;0.63;0.30;;;20.30;99.90;;;;;;5048842;28;20256;-78
2022/11/17 01:14:03;;;;;;;0.63;0.60;;;20.00;99.90;;;;;;5047531;28;20186;-76
2022/11/17 01:16:36;;;;;;;1.35;0.43;;;19.90;99.90;;;;;;5049613;28;20251;-77
2022/11/17 01:19:07;;;;;;;2.35;0.75;;;20.10;99.90;;;;;;5046015;28;20251;-75
2022/11/17 01:21:40;;;;;;;1.67;0.70;;;20.00;99.90;;;;;;5046565;28;20272;-79
2022/11/17 01:24:16;;;;;;;2.53;0.88;;;19.80;99.90;;;;;;5051928;28;20218;-78
2022/11/17 01:26:50;;;;;;;1.83;0.90;;;19.80;99.90;;;;;;5049880;28;20195;-75
2022/11/17 01:29:21;;;;;;;2.90;0.70;;;19.70;99.90;;;;;;5048757;28;20675;-76
2022/11/17 01:31:54;;;;;;;1.13;0.40;;;19.50;99.90;;;;;;5054799;28;20252;-78
2022/11/17 01:34:27;;;;;;;1.80;0.45;;;19.70;99.90;;;;;;5055911;28;20270;-77
2022/11/17 01:39:47;;;;;;;2.60;0.85;;;19.90;99.90;;;;;;5057754;28;20570;-79
2022/11/17 01:42:19;;;;;;;2.58;0.88;;;20.00;99.90;;;;;;5054545;28;20226;-80
2022/11/17 01:45:02;;;;;;;1.52;0.70;;;19.80;99.90;;;;;;5052620;28;20215;-79
2022/11/17 01:47:41;;;;;;;1.15;0.40;;;19.70;99.90;;;;;;5056738;28;20296;-78
2022/11/17 01:50:21;;;;;;;2.90;0.60;;;19.60;99.90;;;;;;5058245;28;20605;-79
2022/11/17 01:52:55;;;;;;;2.83;0.70;;;19.50;99.90;;;;;;5051193;28;20287;-80
2022/11/17 01:55:34;;;;;;;1.70;0.70;;;19.50;99.90;;;;;;5054560;28;20273;-81
2022/11/17 01:58:08;;;;;;;3.65;0.80;;;19.60;99.90;;;;;;5054572;28;20638;-79
2022/11/17 02:00:41;;;;;;;1.70;0.60;;;19.50;99.90;;;;;;5055088;28;20722;-79
2022/11/17 02:03:15;;;;;;;1.45;0.50;;;19.50;99.90;;;;;;5058890;28;20197;-81
2022/11/17 02:05:53;;;;;;;2.13;0.70;;;19.40;99.90;;;;;;5057025;28;20605;-81
2022/11/17 02:08:26;;;;;;;1.60;0.50;;;19.40;99.90;;;;;;5055507;28;20289;-78
2022/11/17 02:11:04;;;;;;;1.95;0.60;;;19.50;99.90;;;;;;5058654;28;20292;-80
2022/11/17 02:13:38;;;;;;;2.60;0.68;;;19.50;99.90;;;;;;5052525;28;20202;-79
2022/11/17 02:16:13;;;;;;;1.75;0.68;;;19.50;99.90;;;;;;5050569;28;20218;-77
2022/11/17 02:18:45;;;;;;;2.15;0.50;;;19.70;99.90;;;;;;5060428;28;20197;-77
2022/11/17 02:21:47;;;;;;;2.65;0.70;;;19.60;99.90;;;;;;5048221;28;20284;-77
2022/11/17 02:24:47;;;;;;;2.65;0.50;;;19.50;99.90;;;;;;5044760;28;20212;-79
2022/11/17 02:27:54;;;;;;;1.35;0.50;;;19.40;99.90;;;;;;5049927;28;20201;-77
2022/11/17 02:30:26;;;;;;;1.42;0.70;;;19.10;99.90;;;;;;5050680;28;20212;-80
2022/11/17 02:33:05;;;;;;;0.85;0.40;;;18.90;99.90;;;;;;5047801;28;20238;-79
2022/11/17 02:35:42;;;;;;;2.55;0.63;;;18.90;99.90;;;;;;5052933;28;20320;-74
2022/11/17 02:38:28;;;;;;;3.55;0.80;;;18.80;99.90;;;;;;5048267;28;20659;-78
2022/11/17 02:41:12;;;;;;;3.95;0.70;;;18.80;99.90;;;;;;5057554;28;20708;-76
2022/11/17 02:44:06;;;;;;;3.72;0.70;;;19.00;99.90;;;;;;5056836;28;20279;-75
2022/11/17 02:46:48;;;;;;;1.65;0.68;;;19.10;99.90;;;;;;5049546;28;20193;-78
2022/11/17 02:49:22;;;;;;;1.67;0.60;;;19.10;99.90;;;;;;5062043;28;20338;-78
2022/11/17 02:51:57;;;;;;;2.40;0.57;;;19.00;99.90;;;;;;5059970;28;20245;-76
2022/11/17 02:54:30;;;;;;;1.10;0.70;;;19.10;99.90;;;;;;5059592;28;20205;-78
2022/11/17 02:57:03;;;;;;;3.33;0.70;;;19.20;99.90;;;;;;5061557;28;20193;-78
2022/11/17 02:59:40;;;;;;;0.77;0.50;;;19.20;99.90;;;;;;5060084;28;20260;-79
2022/11/17 03:02:35;;;;;;;2.67;0.70;;;19.10;99.90;;;;;;5063103;28;20276;-79
2022/11/17 03:05:17;;;;;;;1.35;0.57;;;19.00;99.90;;;;;;5048521;28;20281;-77
2022/11/17 03:08:03;;;;;;;1.45;0.70;;;19.10;99.90;;;;;;5045892;28;20189;-79
2022/11/17 03:10:44;;;;;;;2.78;0.80;;;19.10;99.90;;;;;;5053218;28;20277;-77
2022/11/17 03:13:19;;;;;;;1.70;0.77;;;19.10;99.90;;;;;;5053368;28;20288;-78
2022/11/17 03:16:01;;;;;;;4.38;0.73;;;19.10;99.90;;;;;;5057605;28;20285;-79
2022/11/17 03:18:37;;;;;;;2.13;0.80;;;19.00;99.90;;;;;;5053447;28;20679;-77
2022/11/17 03:21:18;;;;;;;3.42;0.50;;;19.20;99.90;;;;;;5055010;28;20611;-78
2022/11/17 03:23:53;;;;;;;3.33;0.65;;;19.10;99.90;;;;;;5045448;28;20255;-76
2022/11/17 03:26:31;;;;;;;0.70;0.55;;;19.00;99.90;;;;;;5045924;28;20186;-76
2022/11/17 03:29:03;;;;;;;3.60;0.70;;;19.00;99.90;;;;;;5045538;28;20221;-80
2022/11/17 03:31:39;;;;;;;3.95;0.70;;;19.10;99.90;;;;;;5045427;28;20190;-76
2022/11/17 03:34:15;;;;;;;3.13;0.90;;;19.20;99.90;;;;;;5053412;28;20676;-77
2022/11/17 03:36:50;;;;;;;1.35;0.50;;;19.10;99.90;;;;;;5056915;28;20259;-77
2022/11/17 03:39:26;;;;;;;1.80;0.60;;;19.00;99.90;;;;;;5057815;28;20191;-74
2022/11/17 03:42:02;;;;;;;5.60;0.88;;;19.00;99.90;;;;;;5050947;28;20731;-77
2022/11/17 03:44:35;;;;;;;2.85;0.60;;;19.10;99.90;;;;;;5044790;28;20276;-77
2022/11/17 03:47:11;;;;;;;3.35;0.90;;;19.10;99.90;;;;;;5044865;28;20268;-77
2022/11/17 03:49:48;;;;;;;2.13;0.88;;;18.90;99.90;;;;;;5044555;28;20278;-79
2022/11/17 03:52:20;;;;;;;2.05;0.73;;;19.00;99.90;;;;;;5052556;28;20220;-76
2022/11/17 03:54:53;;;;;;;1.65;0.73;;;19.00;99.90;;;;;;5052772;28;20193;-78
2022/11/17 03:57:29;;;;;;;3.10;0.75;;;19.10;99.90;;;;;;5042976;28;20680;-76
2022/11/17 04:00:06;;;;;;;2.03;0.80;;;19.00;99.90;;;;;;5044825;28;20628;-77
2022/11/17 04:02:44;;;;;;;3.92;0.82;;;19.00;99.90;;;;;;5044749;28;20291;-76
2022/11/17 04:05:17;;;;;;;2.90;0.80;;;18.90;99.90;;;;;;5046376;28;20272;-76
2022/11/17 04:07:49;;;;;;;4.43;0.90;;;18.90;99.90;;;;;;5051115;28;20189;-78
2022/11/17 04:10:22;;;;;;;6.18;0.90;;;18.90;99.90;;;;;;5041266;28;20273;-78
2022/11/17 04:16:00;;;;;;;4.60;0.70;;;18.90;99.90;;;;;;5047024;28;20275;-77
2022/11/17 04:18:34;;;;;;;3.85;0.77;;;18.90;99.90;;;;;;5047668;28;20276;-76
2022/11/17 04:21:05;;;;;;;3.85;0.82;;;18.90;99.90;;;;;;5048528;28;20196;-76
2022/11/17 04:23:37;;;;;;;2.13;0.82;;;18.90;99.90;;;;;;5041517;28;20290;-78
2022/11/17 04:28:55;;;;;;;2.92;0.77;;;18.90;99.90;;;;;;5044675;28;20242;-78
2022/11/17 04:31:29;;;;;;;3.08;0.60;;;18.90;99.90;;;;;;5056015;28;20220;-78
2022/11/17 04:34:05;;;;;;;2.17;0.80;;;18.90;99.90;;;;;;5050583;28;20303;-77
2022/11/17 04:36:39;;;;;;;1.38;0.70;;;18.80;99.90;;;;;;5053013;28;20229;-77
2022/11/17 04:39:11;;;;;;;3.42;0.65;;;18.80;99.90;;;;;;5052351;28;20255;-79
2022/11/17 04:42:02;;;;;;;1.67;0.60;;;18.80;99.90;;;;;;5051635;28;20198;-77
2022/11/17 04:44:34;;;;;;;2.65;0.43;;;18.90;99.90;;;;;;5043398;28;20339;-82
2022/11/17 04:47:05;;;;;;;3.75;0.70;;;18.80;99.90;;;;;;5052041;28;20197;-77
2022/11/17 04:49:40;;;;;;;1.55;0.50;;;18.70;99.90;;;;;;5052413;28;20288;-79
2022/11/17 04:52:18;;;;;;;2.00;0.60;;;18.70;99.90;;;;;;5055243;28;20871;-82
2022/11/17 04:54:50;;;;;;;2.33;0.60;;;18.70;99.90;;;;;;5045454;28;20664;-77
2022/11/17 04:57:22;;;;;;;3.20;0.80;;;18.70;99.90;;;;;;5044623;28;20200;-76
2022/11/17 04:59:53;;;;;;;2.78;0.57;;;18.70;99.90;;;;;;5051579;28;20204;-77
2022/11/17 05:02:24;;;;;;;2.17;0.60;;;18.70;99.90;;;;;;5043242;28;20234;-78
2022/11/17 05:04:57;;;;;;;2.50;0.60;;;18.70;99.90;;;;;;5045426;28;20252;-80
2022/11/17 05:07:29;;;;;;;0.75;0.50;;;18.70;99.90;;;;;;5048108;28;20193;-78
2022/11/17 05:10:00;;;;;;;2.45;0.70;;;18.70;99.90;;;;;;5054452;28;20206;-78
2022/11/17 05:17:03;;;;;;;3.00;0.90;;;18.60;99.90;;;;;;5052510;28;20255;-79
2022/11/17 05:18:07;;;;;;;3.65;0.70;;;18.70;99.90;;;;;;5055379;28;20193;-78
2022/11/17 05:20:42;;;;;;;0.77;0.50;;;18.60;99.90;;;;;;5063069;28;20213;-76
2022/11/17 05:26:00;;;;;;;2.40;0.60;;;18.60;99.90;;;;;;5037099;28;20213;-79
2022/11/17 05:28:34;;;;;;;1.38;0.63;;;18.50;99.90;;;;;;5054219;28;20209;-79
2022/11/17 05:31:05;;;;;;;3.47;0.70;;;18.50;99.90;;;;;;5055920;28;20611;-79
2022/11/17 05:33:36;;;;;;;2.97;0.70;;;18.60;99.90;;;;;;5058832;28;20206;-77
2022/11/17 05:36:11;;;;;;;2.33;0.60;;;18.60;99.90;;;;;;5057420;28;20323;-76
2022/11/17 05:38:42;;;;;;;2.30;0.50;;;18.50;99.90;;;;;;5051621;28;20276;-78
2022/11/17 05:41:13;;;;;;;1.58;0.73;;;18.60;99.90;;;;;;5057766;28;20182;-76
2022/11/17 05:43:44;;;;;;;2.58;0.57;;;18.60;99.90;;;;;;5055500;28;20220;-79
2022/11/17 05:46:16;;;;;;;2.30;0.68;;;18.50;99.90;;;;;;5053176;28;20285;-79
2022/11/17 05:48:48;;;;;;;1.65;0.60;;;18.40;99.90;;;;;;5052305;28;20224;-77
2022/11/17 05:51:25;;;;;;;1.27;0.60;;;18.30;99.90;;;;;;5056197;28;20205;-79
2022/11/17 05:53:56;;;;;;;1.98;0.40;;;18.10;99.90;;;;;;5052829;28;20220;-79
2022/11/17 05:56:38;;;;;;;3.30;0.85;;;18.20;99.90;;;;;;5051097;28;20285;-77
2022/11/17 05:59:18;;;;;;;2.60;0.70;;;18.30;99.90;;;;;;5053659;28;20280;-78
2022/11/17 06:01:54;;;;;;;2.38;0.50;;;18.40;99.90;;;;;;5052932;28;20285;-78
2022/11/17 06:04:26;;;;;;;0.80;0.55;;;18.50;99.90;;;;;;5058974;28;20188;-78
2022/11/17 06:07:01;;;;;;;2.15;0.65;;;18.40;99.90;;;;;;5051878;28;20248;-79
2022/11/17 06:09:34;;;;;;;1.58;0.60;;;18.30;99.90;;;;;;5055844;28;20219;-78
2022/11/17 06:12:05;;;;;;;2.15;0.50;;;18.40;99.90;;;;;;5052817;28;20610;-79
2022/11/17 06:14:38;;;;;;;2.38;0.65;;;18.40;99.90;;;;;;5054919;28;20305;-79
2022/11/17 06:17:18;;;;;;;4.07;0.70;;;18.40;99.90;;;;;;5050613;28;20197;-77
2022/11/17 06:19:59;;;;;;;2.45;0.70;;;18.40;99.90;;;;;;5049096;28;20188;-77
2022/11/17 06:22:34;;;;;;;2.15;0.52;;;18.40;99.90;;;;;;5052598;28;20741;-77
2022/11/17 06:25:07;;;;;;;5.53;0.88;;;18.40;99.90;;;;;;5060147;28;20213;-79
2022/11/17 06:27:42;;;;;;;3.25;0.95;;;18.30;99.90;;;;;;5059914;28;20304;-78
2022/11/17 06:30:13;;;;;;;2.50;0.82;;;18.20;99.90;;;;;;5055916;28;20232;-77
2022/11/17 06:32:46;;;;;;;1.95;0.60;;;18.20;99.90;;;;;;5059238;28;20292;-78
2022/11/17 06:35:18;;;;;;;1.58;0.70;;;18.20;99.90;;;;;;5052837;28;20221;-80
2022/11/17 06:37:52;;;;;;;3.38;0.57;;;18.20;99.90;;;;;;5057486;28;20205;-79
2022/11/17 06:40:23;;;;;;;1.52;0.60;;;18.20;99.90;;;;;;5052248;28;20197;-78
2022/11/17 06:43:10;;;;;;;1.88;0.68;;;18.30;99.90;;;;;;5058692;28;20237;-79
2022/11/17 06:45:42;;;;;;;2.58;0.57;;;18.30;99.90;;;;;;5057809;28;20187;-81
2022/11/17 06:48:16;;;;;;;1.25;0.40;;;18.40;99.90;;;;;;5058992;28;20731;-79
2022/11/17 06:50:50;;;;;;;2.22;0.50;;;18.50;99.90;;;;;;5054063;28;20200;-79
2022/11/17 06:53:25;;;;;;;2.72;0.40;;;18.40;99.90;;;;;;5057189;28;20214;-80
2022/11/17 06:58:41;;;;;;;3.70;0.57;;;18.20;99.90;;;;;;5054435;28;20689;-81
2022/11/17 07:01:13;;;;;;;4.13;0.70;;;18.20;99.90;;;;;;5047055;28;20566;-79
2022/11/17 07:03:45;;;;;;;3.30;0.93;;;18.10;99.90;;;;;;5056779;28;20727;-80
2022/11/17 07:06:17;;;;;;;3.33;0.50;;;18.00;99.90;;;;;;5056917;28;20265;-79
2022/11/17 07:08:55;;;;;;;3.72;0.70;;;18.00;99.90;;;;;;5052462;28;20233;-80
2022/11/17 07:11:27;;;;;;;1.95;0.47;;;18.00;99.90;;;;;;5052511;28;20559;-81
2022/11/17 07:13:59;;;;;;;2.72;0.60;;;18.00;99.90;;;;;;5048114;28;20304;-79
2022/11/17 07:16:31;;;;;;;2.03;0.57;;;18.00;99.90;;;;;;5054521;28;20571;-80
2022/11/17 07:19:02;;;;;;;2.53;0.60;;;17.90;99.90;;;;;;5048274;28;20575;-80
2022/11/17 07:21:34;;;;;;;3.97;0.90;;;18.00;99.90;;;;;;5059591;28;20281;-80
2022/11/17 07:24:08;;;;;;;2.47;0.65;;;18.00;99.90;;;;;;5059316;28;20546;-80
2022/11/17 07:26:39;;;;;;;3.22;0.65;;;17.90;99.90;;;;;;5046366;28;20281;-78
2022/11/17 07:29:10;;;;;;;2.95;0.57;;;17.90;99.90;;;;;;5043865;28;20200;-79
2022/11/17 07:31:42;;;;;;;3.00;0.50;;;17.90;99.90;;;;;;5050001;28;20372;-80
2022/11/17 07:34:13;;;;;;;2.85;0.68;;;17.80;99.90;;;;;;5054517;28;20241;-79
2022/11/17 07:36:44;;;;;;;4.95;0.70;;;17.80;99.90;;;;;;5052071;28;20243;-80
2022/11/17 07:39:18;;;;;;;4.00;0.60;;;17.80;99.90;;;;;;5051566;28;20656;-79
2022/11/17 07:41:50;;;;;;;1.90;0.50;;;17.90;99.90;;;;;;5046323;28;20201;-79
2022/11/17 07:44:22;;;;;;;3.17;0.70;;;17.90;99.90;;;;;;5035173;28;20379;-79
2022/11/17 07:46:53;;;;;;;3.30;0.70;;;17.90;99.90;;;;;;5034435;28;20197;-79
2022/11/17 07:49:24;;;;;;;5.43;0.60;;;17.90;99.90;;;;;;5052250;28;20296;-78
2022/11/17 07:51:56;;;;;;;4.22;0.85;;;17.80;99.90;;;;;;5050631;28;20274;-79
2022/11/17 07:54:30;;;;;;;1.70;0.50;;;17.70;99.90;;;;;;5052165;28;20217;-78
2022/11/17 07:57:01;;;;;;;3.45;0.70;;;17.70;99.90;;;;;;5049353;28;20239;-79
2022/11/17 07:59:33;;;;;;;3.92;0.60;;;17.70;99.90;;;;;;5049286;28;20288;-76
2022/11/17 08:02:04;;;;;;;3.72;0.80;;;17.60;99.90;;;;;;5052813;28;20228;-77
2022/11/17 08:04:35;;;;;;;1.02;0.43;;;17.50;99.90;;;;;;5043755;28;20280;-78
2022/11/17 08:07:07;;;;;;;1.95;0.57;;;17.30;99.90;;;;;;5046746;28;20190;-78
2022/11/17 08:09:43;;;;;;;4.22;0.70;;;17.20;99.90;;;;;;5051173;28;20201;-79
2022/11/17 08:12:14;;;;;;;4.25;0.90;;;17.20;99.90;;;;;;5050312;28;20190;-79
2022/11/17 08:14:45;;;;;;;3.47;0.70;;;17.20;99.90;;;;;;5049894;28;20255;-76
2022/11/17 08:17:17;;;;;;;2.80;0.82;;;17.10;99.90;;;;;;5045669;28;20193;-78
2022/11/17 08:19:48;;;;;;;3.38;0.65;;;17.10;99.90;;;;;;5044414;28;20232;-78
2022/11/17 08:22:19;;;;;;;3.30;0.65;;;17.10;99.90;;;;;;5058289;28;20208;-78
2022/11/17 08:24:54;;;;;;;4.22;0.70;;;17.00;99.90;;;;;;5045557;28;20607;-78
2022/11/17 08:27:25;;;;;;;3.45;0.80;;;17.00;99.90;;;;;;5055485;28;20184;-78
2022/11/17 08:29:56;;;;;;;8.02;1.15;;;17.00;99.90;;;;;;5051944;28;20208;-78
2022/11/17 08:32:29;;;;;;;4.30;0.70;;;17.00;99.90;;;;;;5053540;28;20351;-78
2022/11/17 08:35:02;;;;;;;2.75;0.77;;;16.90;99.90;;;;;;5056727;28;20391;-78
2022/11/17 08:37:35;;;;;;;2.80;0.85;;;16.90;99.90;;;;;;5057696;28;20327;-79
2022/11/17 08:40:10;;;;;;;1.73;0.65;;;16.90;99.90;;;;;;5042480;28;20320;-78
2022/11/17 08:42:41;;;;;;;3.40;0.90;;;16.90;99.90;;;;;;5050707;28;20669;-78
2022/11/17 08:45:12;;;;;;;4.85;0.80;;;16.80;99.90;;;;;;5048402;28;20198;-79
2022/11/17 08:47:43;;;;;;;3.30;0.73;;;16.80;99.90;;;;;;5066636;28;20186;-78
2022/11/17 08:50:16;;;;;;;5.28;0.95;;;16.80;99.90;;;;;;5054133;28;20202;-77
2022/11/17 08:52:48;;;;;;;3.45;0.73;;;16.80;99.90;;;;;;5052455;28;20197;-79
2022/11/17 08:55:24;;;;;;;3.40;0.70;;;16.80;99.90;;;;;;5044923;28;20229;-78
2022/11/17 08:57:56;;;;;;;4.70;1.00;;;16.70;99.90;;;;;;5069926;28;20196;-79
2022/11/17 09:00:27;;;;;;;2.58;0.80;;;16.70;99.90;;;;;;5052700;28;20284;-77
2022/11/17 09:02:58;;;;;;;2.28;0.73;;;16.70;99.90;;;;;;5055344;28;20648;-77
2022/11/17 09:05:29;;;;;;;1.60;0.60;;;16.60;99.90;;;;;;5055530;28;20202;-79
2022/11/17 09:08:02;;;;;;;5.25;0.80;;;16.60;99.90;;;;;;5052096;28;20232;-78
2022/11/17 09:10:38;;;;;;;3.70;0.60;;;16.50;99.90;;;;;;5049581;28;20275;-79
2022/11/17 09:13:12;;;;;;;4.90;0.90;;;16.50;99.90;;;;;;5054450;28;20658;-78
2022/11/17 09:15:44;;;;;;;5.40;1.00;;;16.50;99.90;;;;;;5047173;28;20283;-78
2022/11/17 09:18:15;;;;;;;4.55;0.90;;;16.50;99.90;;;;;;5049133;28;20228;-77
2022/11/17 09:20:47;;;;;;;2.45;0.88;;;16.50;99.90;;;;;;5060827;28;20186;-79
2022/11/17 09:23:18;;;;;;;4.53;0.80;;;16.40;99.90;;;;;;5052611;28;20281;-78
2022/11/17 09:25:51;;;;;;;3.40;0.95;;;16.40;99.90;;;;;;5060126;28;20643;-78
2022/11/17 09:28:22;;;;;;;3.65;0.93;;;16.40;99.90;;;;;;5055530;28;20289;-79
2022/11/17 09:30:54;;;;;;;3.25;0.77;;;16.40;99.90;;;;;;5063047;28;20194;-79
2022/11/17 09:33:27;;;;;;;4.88;1.10;;;16.40;99.90;;;;;;5047571;28;20197;-79
2022/11/17 09:36:00;;;;;;;4.45;0.80;;;16.40;99.90;;;;;;5055826;28;20239;-78
2022/11/17 09:38:31;;;;;;;4.25;0.90;;;16.40;99.90;;;;;;5054564;28;20277;-79
2022/11/17 09:41:13;;;;;;;4.03;0.95;;;16.40;99.90;;;;;;5050778;28;20247;-79
2022/11/17 09:43:50;;;;;;;5.38;0.85;;;16.40;99.90;;;;;;5057053;28;20248;-79
2022/11/17 09:46:29;;;;;;;4.78;1.00;;;16.40;99.90;;;;;;5050717;28;20211;-78
2022/11/17 09:49:08;;;;;;;4.78;0.90;;;16.40;99.90;;;;;;5051027;28;20276;-79
2022/11/17 09:51:43;;;;;;;3.90;0.93;;;16.40;99.90;;;;;;5046502;28;20205;-78
2022/11/17 09:54:22;;;;;;;7.13;0.90;;;16.40;99.90;;;;;;5061696;28;20209;-77
2022/11/17 09:56:59;;;;;;;3.55;0.75;;;16.40;99.90;;;;;;5046280;28;20657;-77
2022/11/17 09:59:33;;;;;;;10.52;5.35;;;16.40;99.90;;;;;;5046250;28;20233;-78
2022/11/17 10:02:04;;;;;;;5.30;1.42;;;16.40;99.90;;;;;;5050144;28;20758;-77
2022/11/17 10:04:36;;;;;;;22.92;14.00;;;16.30;99.90;;;;;;5054972;28;20222;-76
2022/11/17 10:07:10;;;;;;;10.63;2.17;;;16.40;99.90;;;;;;5051895;28;20281;-77
2022/11/17 10:09:47;;;;;;;4.18;1.00;;;16.30;99.90;;;;;;5046030;28;20216;-82
2022/11/17 10:12:22;;;;;;;3.72;0.90;;;16.30;99.90;;;;;;5054137;28;20197;-79
2022/11/17 10:14:56;;;;;;;6.43;1.10;;;16.30;99.90;;;;;;5041483;28;20213;-77
2022/11/17 10:17:27;;;;;;;2.97;0.80;;;16.20;99.90;;;;;;5056733;28;20229;-79
2022/11/17 10:19:58;;;;;;;6.07;1.02;;;16.20;99.90;;;;;;5051436;28;20289;-80
2022/11/17 10:22:37;;;;;;;3.50;1.00;;;16.20;99.90;;;;;;5045003;28;20201;-77
2022/11/17 10:25:37;;;;;;;4.15;1.23;;;16.20;99.90;;;;;;5046909;28;20284;-75
2022/11/17 10:28:24;;;;;;;2.20;0.85;;;16.20;99.90;;;;;;5050625;28;20202;-76
2022/11/17 10:31:01;;;;;;;5.95;0.93;;;16.20;99.90;;;;;;5056955;28;20246;-76
2022/11/17 10:33:42;;;;;;;2.03;0.70;;;16.10;99.90;;;;;;5050613;28;20208;-79
2022/11/17 10:36:21;;;;;;;6.38;1.42;;;16.20;99.90;;;;;;5058095;28;20270;-76
2022/11/17 10:38:54;;;;;;;3.70;1.00;;;16.10;99.90;;;;;;5048879;28;20932;-75
2022/11/17 10:41:30;;;;;;;3.05;0.90;;;16.10;99.90;;;;;;5054458;28;20203;-76
2022/11/17 10:44:06;;;;;;;5.28;1.05;;;16.10;99.90;;;;;;5049544;28;20331;-76
2022/11/17 10:46:56;;;;;;;3.10;0.55;;;16.10;99.90;;;;;;5046332;28;20927;-76
2022/11/17 10:49:31;;;;;;;3.70;0.82;;;16.10;99.90;;;;;;5050354;28;20229;-75
2022/11/17 10:52:19;;;;;;;6.70;0.90;;;16.10;99.90;;;;;;5045688;28;20199;-76
2022/11/17 10:54:52;;;;;;;5.28;0.98;;;16.10;99.90;;;;;;5046394;28;20313;-75
2022/11/17 10:57:29;;;;;;;4.13;1.08;;;16.10;99.90;;;;;;5046924;28;20221;-76
2022/11/17 11:00:03;;;;;;;4.32;0.90;;;16.10;99.90;;;;;;5049591;28;20671;-76
2022/11/17 11:02:38;;;;;;;4.85;1.00;;;16.10;99.90;;;;;;5050676;28;20275;-76
2022/11/17 11:05:11;;;;;;;5.65;0.80;;;16.10;99.90;;;;;;5049045;28;20201;-76
2022/11/17 11:07:43;;;;;;;4.07;0.98;;;16.00;99.90;;;;;;5048588;28;20288;-76
2022/11/17 11:10:18;;;;;;;3.53;0.90;;;16.00;99.90;;;;;;5049170;28;20194;-76
2022/11/17 11:12:58;;;;;;;4.22;1.00;;;16.00;99.90;;;;;;5055719;28;20580;-76
2022/11/17 11:15:39;;;;;;;6.00;1.10;;;16.00;99.90;;;;;;5056657;28;20220;-76
2022/11/17 11:18:16;;;;;;;4.47;0.85;;;16.00;99.90;;;;;;5047756;28;20210;-77
2022/11/17 11:20:56;;;;;;;5.90;1.00;;;16.00;99.90;;;;;;5051839;28;20197;-75
2022/11/17 11:23:37;;;;;;;3.45;0.65;;;16.00;99.90;;;;;;5051627;28;20276;-75
2022/11/17 11:26:31;;;;;;;3.63;0.82;;;16.00;99.90;;;;;;5058021;28;20205;-76
2022/11/17 11:29:23;;;;;;;6.88;1.25;;;16.10;99.90;;;;;;5051200;28;20193;-76
2022/11/17 11:32:13;;;;;;;4.72;0.90;;;16.10;99.90;;;;;;5049132;28;20571;-75
2022/11/17 11:35:22;;;;;;;5.00;0.95;;;16.10;99.90;;;;;;5053709;28;20259;-75
2022/11/17 11:38:00;;;;;;;3.45;1.05;;;16.10;99.90;;;;;;5059577;28;20288;-75
2022/11/17 11:40:38;;;;;;;2.53;0.95;;;16.10;99.90;;;;;;5052850;28;20232;-76
2022/11/17 11:43:28;;;;;;;4.10;0.98;;;16.10;99.90;;;;;;5047606;28;20207;-77
2022/11/17 11:46:07;;;;;;;5.57;1.00;;;16.10;99.90;;;;;;5053843;28;20572;-75
2022/11/17 11:48:44;;;;;;;5.25;0.80;;;16.10;99.90;;;;;;5050483;28;20211;-75
2022/11/17 11:51:21;;;;;;;4.15;0.90;;;16.10;99.90;;;;;;5064607;28;20203;-77
2022/11/17 11:53:57;;;;;;;5.93;2.00;;;16.10;99.90;;;;;;5055491;28;20276;-78
2022/11/17 11:56:32;;;;;;;4.85;0.80;;;16.20;99.90;;;;;;5055827;28;20307;-75
2022/11/17 11:59:08;;;;;;;5.28;0.80;;;16.20;99.90;;;;;;5051385;28;20231;-76
2022/11/17 12:01:49;;;;;;;8.30;1.20;;;16.10;99.90;;;;;;5057088;28;20283;-78
2022/11/17 12:04:33;;;;;;;4.60;0.88;;;16.10;99.90;;;;;;5061131;28;20571;-78
2022/11/17 12:07:15;;;;;;;7.10;1.10;;;16.10;99.90;;;;;;5044468;28;20276;-76
2022/11/17 12:10:04;;;;;;;4.22;0.88;;;16.10;99.90;;;;;;5062595;28;20212;-76
2022/11/17 12:12:36;;;;;;;5.57;0.90;;;16.10;99.90;;;;;;5052490;28;20233;-80
2022/11/17 12:15:13;;;;;;;2.75;0.90;;;16.10;99.90;;;;;;5060765;28;20720;-76
2022/11/17 12:18:02;;;;;;;5.40;1.10;;;16.20;99.90;;;;;;5052128;28;20277;-75
2022/11/17 12:20:57;;;;;;;5.85;1.10;;;16.20;99.90;;;;;;5051387;28;20194;-83
2022/11/17 12:24:01;;;;;;;8.88;1.13;;;16.20;99.90;;;;;;5053154;28;20281;-76
2022/11/17 12:26:35;;;;;;;7.05;0.80;;;16.20;99.90;;;;;;5049156;28;20201;-75
2022/11/17 12:29:30;;;;;;;4.30;0.85;;;16.20;99.90;;;;;;5049030;28;20205;-75
2022/11/17 12:32:03;;;;;;;3.72;0.90;;;16.20;99.90;;;;;;5050771;28;20714;-74
2022/11/17 12:34:37;;;;;;;4.35;0.90;;;16.20;99.90;;;;;;5044288;28;20228;-75
2022/11/17 12:37:35;;;;;;;5.30;1.00;;;16.20;99.90;;;;;;5037364;28;20639;-75
2022/11/17 12:40:09;;;;;;;4.80;1.25;;;16.10;99.90;;;;;;5046021;28;20201;-75
2022/11/17 12:43:30;;;;;;;6.45;1.42;;;16.00;99.90;;;;;;5047511;28;20197;-76
2022/11/17 12:46:25;;;;;;;3.83;0.93;;;15.90;99.90;;;;;;5006187;28;20277;-76
2022/11/17 12:49:05;;;;;;;3.63;0.90;;;15.90;99.90;;;;;;5046345;28;20284;-76
2022/11/17 12:51:42;;;;;;;6.07;1.05;;;15.90;99.90;;;;;;5054566;28;20667;-75
2022/11/17 12:54:27;;;;;;;4.50;1.08;;;15.90;99.90;;;;;;5042096;28;20196;-75
2022/11/17 12:57:04;;;;;;;5.25;1.20;;;15.90;99.90;;;;;;5057833;28;20255;-75
2022/11/17 13:00:06;;;;;;;4.93;1.05;;;15.80;99.90;;;;;;5049179;28;20204;-76
2022/11/17 13:02:56;;;;;;;5.45;1.20;;;15.80;99.90;;;;;;5049779;28;20224;-75
2022/11/17 13:05:28;;;;;;;5.13;0.90;;;15.70;99.90;;;;;;5043443;28;20197;-75
2022/11/17 13:08:24;;;;;;;6.18;1.30;;;15.60;99.90;;;;;;5046093;28;20548;-76
2022/11/17 13:11:10;;;;;;;8.05;1.50;;;15.60;99.90;;;;;;5044997;28;20294;-75
2022/11/17 13:13:41;;;;;;;6.78;1.10;;;15.60;99.90;;;;;;5051208;28;20237;-75
2022/11/17 13:16:20;;;;;;;5.75;1.10;;;15.60;99.90;;;;;;5048459;28;20581;-76
2022/11/17 13:18:52;;;;;;;5.47;1.05;;;15.60;99.90;;;;;;5042411;28;20200;-75
2022/11/17 13:21:31;;;;;;;5.82;1.00;;;15.60;99.90;;;;;;5043662;28;20565;-76
2022/11/17 13:24:03;;;;;;;9.05;1.20;;;15.50;99.90;;;;;;5044171;28;20190;-76
2022/11/17 13:26:37;;;;;;;3.55;1.20;;;15.50;99.90;;;;;;5047572;28;20204;-76
2022/11/17 13:29:09;;;;;;;5.30;1.15;;;15.50;99.90;;;;;;5050646;28;20197;-76
2022/11/17 13:31:39;;;;;;;5.70;0.88;;;15.40;99.90;;;;;;5043553;28;20206;-76
2022/11/17 13:34:19;;;;;;;5.75;1.13;;;15.40;99.90;;;;;;5053335;28;20217;-75
2022/11/17 13:36:58;;;;;;;9.05;1.45;;;15.40;99.90;;;;;;5052863;28;20240;-76
2022/11/17 13:39:29;;;;;;;5.53;1.30;;;15.40;99.90;;;;;;5042762;28;20201;-75
2022/11/17 13:42:04;;;;;;;6.75;1.13;;;15.30;99.90;;;;;;5046631;28;20202;-75
2022/11/17 13:44:35;;;;;;;4.57;0.88;;;15.30;99.90;;;;;;5050188;28;20201;-76
2022/11/17 13:47:21;;;;;;;5.03;1.02;;;15.20;99.90;;;;;;5054213;28;20197;-74
2022/11/17 13:49:52;;;;;;;5.13;0.90;;;15.20;99.90;;;;;;5048763;28;20295;-74
2022/11/17 13:52:36;;;;;;;7.57;1.20;;;15.20;99.90;;;;;;5046355;28;20194;-75
2022/11/17 13:55:11;;;;;;;5.93;0.80;;;15.10;99.90;;;;;;5043976;28;20220;-75
2022/11/17 13:57:56;;;;;;;3.92;1.00;;;15.10;99.90;;;;;;5044407;28;20290;-74
2022/11/17 14:00:28;;;;;;;4.60;0.80;;;15.10;99.90;;;;;;5043400;28;20281;-74